Mt Bomar Mars — 9HCM9 — position and weather

sailwx.info

Track history (hours):
 
Tides and Currents Weather Stations Pressure Air Temp Water Temp Dewpoint Dewpoint Depression Visibility Wind Speed Wind Dir Waves Ship Positions

Mt Bomar Mars

Last reported at 2015-Jul-29 15:33 UTC. Time now 2015-Jul-29 15:59 UTC.
Position N 53°47' E 009°24'.

Length 107 m; draft 5.3 m.

Type: Ship. MMSI: 256784000.

Date/timePositionNaut miles runAvg speedWind from/ knotsBaromVisibWave heightAir tempDewpointWater temp
2015-Jul-29 15:33N 53°47' E 009°24'1413.4
2015-Jul-29 14:33N 53°36' E 009°36'1110.9
2015-Jul-29 13:33N 53°33' E 009°54'3 3.1
2015-Jul-29 12:32N 53°30' E 009°58'0 0.0
2015-Jul-29 11:26N 53°30' E 009°58'0 0.0
2015-Jul-29 10:32N 53°30' E 009°58'0 0.0
2015-Jul-29 09:32N 53°30' E 009°58'0 0.0
2015-Jul-29 08:32N 53°30' E 009°58'0 0.0
2015-Jul-29 07:32N 53°30' E 009°58'0 0.0
2015-Jul-29 06:32N 53°30' E 009°58'0 0.0
2015-Jul-29 05:32N 53°30' E 009°58'0 0.0
2015-Jul-29 04:32N 53°30' E 009°58'0 0.0
2015-Jul-29 03:32N 53°30' E 009°58'0 0.0
2015-Jul-29 02:26N 53°30' E 009°58'0 0.0
2015-Jul-29 01:32N 53°30' E 009°58'0 0.0
2015-Jul-29 00:32N 53°30' E 009°58'0 0.0
2015-Jul-28 23:32N 53°30' E 009°58'0 0.0
2015-Jul-28 22:29N 53°30' E 009°58'0 0.0
2015-Jul-28 21:32N 53°30' E 009°58'0 0.0
2015-Jul-28 20:32N 53°30' E 009°58'0 0.0
2015-Jul-28 19:32N 53°30' E 009°58'0 0.0
2015-Jul-28 18:33N 53°30' E 009°58'5 4.8
2015-Jul-28 17:33N 53°33' E 009°51'9 8.7
2015-Jul-28 16:33N 53°35' E 009°37'9 9.1
2015-Jul-28 15:33N 53°43' E 009°28'9 8.7
2015-Jul-28 14:33N 53°50' E 009°21'8 8.3
2015-Jul-28 13:33N 53°53' E 009°07'9 8.6
2015-Jul-28 12:34N 53°50' E 008°53'9 8.9
2015-Jul-28 11:33N 53°55' E 008°40'9 8.6
2015-Jul-28 10:33N 53°59' E 008°27'1010.4
2015-Jul-28 09:33N 53°59' E 008°09'1010.5
2015-Jul-28 08:33N 54°02' E 007°52'4 3.4
2015-Jul-28 07:26N 54°04' E 007°46'0 0.0
2015-Jul-28 06:29N 54°04' E 007°46'0 0.0
2015-Jul-28 05:29N 54°04' E 007°46'0 0.0
2015-Jul-28 04:32N 54°04' E 007°46'0 0.0
2015-Jul-28 03:23N 54°04' E 007°46'0 0.0
2015-Jul-28 02:26N 54°04' E 007°46'0 0.0
2015-Jul-28 01:26N 54°04' E 007°46'0 0.0
2015-Jul-28 00:29N 54°04' E 007°46'0 0.0
2015-Jul-27 23:29N 54°04' E 007°46'0 0.0
2015-Jul-27 22:29N 54°04' E 007°46'0 0.1
2015-Jul-27 21:17N 54°04' E 007°46'3 3.7
2015-Jul-27 20:33N 54°06' E 007°44'1111.0
2015-Jul-27 19:34N 54°09' E 007°26'1211.8
2015-Jul-27 18:33N 54°09' E 007°06'3812.4
2015-Jul-27 15:31N 54°07' E 006°02'1212.4
2015-Jul-27 14:33N 54°05' E 005°41'1212.0
2015-Jul-27 13:32N 54°03' E 005°21'1211.9
2015-Jul-27 12:31N 54°02' E 005°00'125 8.8
2015-Jul-26 22:16N 52°08' E 003°34'7 9.7
2015-Jul-26 21:33N 52°06' E 003°44'10 9.8
2015-Jul-26 20:33N 52°01' E 003°58'1111.1
2015-Jul-26 19:33N 51°56' E 004°14'5 3.9
2015-Jul-26 18:15N 51°54' E 004°21'0 0.0
2015-Jul-26 15:24N 51°54' E 004°21'0 0.0
2015-Jul-26 14:30N 51°54' E 004°21'0 0.0
2015-Jul-26 13:18N 51°54' E 004°21'0 0.0
2015-Jul-26 11:18N 51°54' E 004°21'0 0.0
2015-Jul-26 10:12N 51°54' E 004°21'0 0.0
2015-Jul-26 09:30N 51°54' E 004°21'0 0.0
2015-Jul-26 08:06N 51°54' E 004°21'0 0.0
2015-Jul-26 07:18N 51°54' E 004°21'0 0.0
2015-Jul-26 06:24N 51°54' E 004°21'0 0.0
2015-Jul-26 04:30N 51°54' E 004°21'0 0.0
2015-Jul-26 03:33N 51°54' E 004°21'0 0.0
2015-Jul-26 02:24N 51°54' E 004°21'0 0.0
2015-Jul-26 01:33N 51°54' E 004°21'0 0.0
2015-Jul-26 00:18N 51°54' E 004°21'0 0.0
2015-Jul-25 23:06N 51°54' E 004°21'0 0.0
2015-Jul-25 22:18N 51°54' E 004°21'0 0.0
2015-Jul-25 21:24N 51°54' E 004°21'0 0.0
2015-Jul-25 20:24N 51°54' E 004°21'3 3.1
2015-Jul-25 19:33N 51°54' E 004°17'1010.5
2015-Jul-25 18:33N 51°59' E 004°03'9 9.4
2015-Jul-25 17:34N 52°01' E 003°48'10 9.7
2015-Jul-25 16:30N 52°06' E 003°33'16410.2
2015-Jul-25 00:27N 54°17' E 000°47'910.0
2015-Jul-24 23:33N 54°21' E 000°34'1010.0
2015-Jul-24 22:33N 54°27' E 000°20'9 9.5
2015-Jul-24 21:33N 54°31' E 000°06'10 9.6
2015-Jul-24 20:33N 54°36' W 000°09'10 9.5
2015-Jul-24 19:33N 54°41' W 000°23'1211.0
2015-Jul-24 18:30N 54°44' W 000°42'1212.0
2015-Jul-24 17:31N 54°41' W 001°02'7 2.4
2015-Jul-24 14:33N 54°36' W 001°11'0 0.0
2015-Jul-24 12:21N 54°36' W 001°11'0 0.0
2015-Jul-24 11:21N 54°36' W 001°11'0 0.0
2015-Jul-23 19:24N 54°36' W 001°11'2 2.1
2015-Jul-23 18:33N 54°38' W 001°10'5 5.3
2015-Jul-23 17:34N 54°41' W 001°02'0 0.1
2015-Jul-23 16:33N 54°41' W 001°02'0 0.0
2015-Jul-23 15:33N 54°41' W 001°02'0 0.0
2015-Jul-23 14:30N 54°41' W 001°02'0 0.0
2015-Jul-23 13:30N 54°41' W 001°02'0 0.0
2015-Jul-23 12:33N 54°41' W 001°02'0 0.0
2015-Jul-23 11:33N 54°41' W 001°02'0 0.0
2015-Jul-23 10:33N 54°41' W 001°02'0 0.0
2015-Jul-23 09:30N 54°41' W 001°02'0 0.0
2015-Jul-23 08:33N 54°41' W 001°02'0 0.0
2015-Jul-23 07:33N 54°41' W 001°02'0 0.0
2015-Jul-23 06:33N 54°41' W 001°02'0 0.0
2015-Jul-23 05:33N 54°41' W 001°02'0 0.0
2015-Jul-23 04:33N 54°41' W 001°02'0 0.0
2015-Jul-23 03:33N 54°41' W 001°02'0 0.0
2015-Jul-23 02:33N 54°41' W 001°02'0 0.0
2015-Jul-23 00:33N 54°41' W 001°02'0 0.0
2015-Jul-22 23:27N 54°41' W 001°02'0 0.0
2015-Jul-22 22:33N 54°41' W 001°02'0 0.1
2015-Jul-22 21:27N 54°41' W 001°02'0 0.0
2015-Jul-22 20:33N 54°41' W 001°02'0 0.0
2015-Jul-22 19:33N 54°41' W 001°02'0 0.0
2015-Jul-22 18:27N 54°41' W 001°02'0 0.0
2015-Jul-22 17:33N 54°41' W 001°02'0 0.0
2015-Jul-22 16:33N 54°41' W 001°02'0 0.1
2015-Jul-22 15:33N 54°41' W 001°02'0 0.0
2015-Jul-22 14:27N 54°41' W 001°02'0 0.0
2015-Jul-22 13:33N 54°41' W 001°02'0 0.0
2015-Jul-22 12:33N 54°41' W 001°02'0 0.0
2015-Jul-22 11:33N 54°41' W 001°02'0 0.1
2015-Jul-22 10:30N 54°41' W 001°02'0 0.1
2015-Jul-22 09:33N 54°41' W 001°02'0 0.0
2015-Jul-22 08:33N 54°41' W 001°02'0 0.0
2015-Jul-22 07:27N 54°41' W 001°02'0 0.0
2015-Jul-22 06:33N 54°41' W 001°02'0 0.0
2015-Jul-22 05:30N 54°41' W 001°02'0 0.0
2015-Jul-22 04:30N 54°41' W 001°02'0 0.0
2015-Jul-22 03:27N 54°41' W 001°02'0 0.0
2015-Jul-22 02:33N 54°41' W 001°02'0 0.0
2015-Jul-22 01:27N 54°41' W 001°02'0 0.0
2015-Jul-22 00:33N 54°41' W 001°02'0 0.1
2015-Jul-21 23:33N 54°41' W 001°02'0 0.0
2015-Jul-21 21:33N 54°41' W 001°02'0 0.0
2015-Jul-21 20:09N 54°41' W 001°02'0 0.0
2015-Jul-21 19:33N 54°41' W 001°02'0 0.0
2015-Jul-21 18:30N 54°41' W 001°02'0 0.0
2015-Jul-21 17:18N 54°41' W 001°02'0 0.0
2015-Jul-21 16:33N 54°41' W 001°02'0 0.0
2015-Jul-21 15:33N 54°41' W 001°02'0 0.0
2015-Jul-21 14:33N 54°41' W 001°02'0 0.0
2015-Jul-21 13:30N 54°41' W 001°02'0 0.0
2015-Jul-21 12:30N 54°41' W 001°02'0 0.0
2015-Jul-21 11:33N 54°41' W 001°02'0 0.0
2015-Jul-21 10:33N 54°41' W 001°02'0 0.0
2015-Jul-21 09:33N 54°41' W 001°02'0 0.0
2015-Jul-21 08:33N 54°41' W 001°02'0 0.0
2015-Jul-21 07:15N 54°41' W 001°02'0 0.0
2015-Jul-21 06:27N 54°41' W 001°02'0 0.0
2015-Jul-21 05:33N 54°41' W 001°02'0 0.0
2015-Jul-21 04:33N 54°41' W 001°02'0 0.0
2015-Jul-21 03:33N 54°41' W 001°02'0 0.0
2015-Jul-21 02:27N 54°41' W 001°02'0 0.0
2015-Jul-21 01:33N 54°41' W 001°02'0 0.0
2015-Jul-21 00:27N 54°41' W 001°02'0 0.0
2015-Jul-20 23:33N 54°41' W 001°02'0 0.0
2015-Jul-20 22:15N 54°41' W 001°02'0 0.2
2015-Jul-20 21:33N 54°41' W 001°02'0 0.0
2015-Jul-20 20:33N 54°41' W 001°02'0 0.0
2015-Jul-20 19:27N 54°41' W 001°02'0 0.0
2015-Jul-20 18:27N 54°41' W 001°02'0 0.1
2015-Jul-20 16:15N 54°41' W 001°02'0 0.1
2015-Jul-20 15:33N 54°41' W 001°02'0 0.0
2015-Jul-20 14:30N 54°41' W 001°02'0 0.0
2015-Jul-20 13:33N 54°41' W 001°02'0 0.0
2015-Jul-20 12:33N 54°41' W 001°02'0 0.0
2015-Jul-20 11:33N 54°41' W 001°02'0 0.0
2015-Jul-20 10:33N 54°41' W 001°02'0 0.0
2015-Jul-20 09:33N 54°41' W 001°02'0 0.0
2015-Jul-20 08:33N 54°41' W 001°02'0 0.1
2015-Jul-20 07:27N 54°41' W 001°02'0 0.0
2015-Jul-20 05:33N 54°41' W 001°02'0 0.0
2015-Jul-20 04:27N 54°41' W 001°02'0 0.0
2015-Jul-20 03:33N 54°41' W 001°02'0 0.0
2015-Jul-20 00:33N 54°41' W 001°02'0 0.0
2015-Jul-19 23:33N 54°41' W 001°02'0 0.0
2015-Jul-19 22:27N 54°41' W 001°02'0 0.1
2015-Jul-19 21:33N 54°41' W 001°02'0 0.1
2015-Jul-19 20:21N 54°41' W 001°02'0 0.0
2015-Jul-19 19:33N 54°41' W 001°02'0 0.1
2015-Jul-19 18:33N 54°41' W 001°02'8 8.1
2015-Jul-19 17:34N 54°40' W 000°48'10 9.5
2015-Jul-19 16:33N 54°37' W 000°33'  
Track history (hours):
 
Tides and Currents Weather Stations Pressure Air Temp Water Temp Dewpoint Dewpoint Depression Visibility Wind Speed Wind Dir Waves Ship Positions

Mt Bomar Mars

Last reported at 2015-Jul-29 15:33 UTC. Time now 2015-Jul-29 15:59 UTC.
Position N 53°47' E 009°24'.

Length 107 m; draft 5.3 m.

Type: Ship. MMSI: 256784000.

Date/timePositionNaut miles runAvg speedWind from/ knotsBaromVisibWave heightAir tempDewpointWater temp
2015-Jul-29 15:33N 53°47' E 009°24'1413.4
2015-Jul-29 14:33N 53°36' E 009°36'1110.9
2015-Jul-29 13:33N 53°33' E 009°54'3 3.1
2015-Jul-29 12:32N 53°30' E 009°58'0 0.0
2015-Jul-29 11:26N 53°30' E 009°58'0 0.0
2015-Jul-29 10:32N 53°30' E 009°58'0 0.0
2015-Jul-29 09:32N 53°30' E 009°58'0 0.0
2015-Jul-29 08:32N 53°30' E 009°58'0 0.0
2015-Jul-29 07:32N 53°30' E 009°58'0 0.0
2015-Jul-29 06:32N 53°30' E 009°58'0 0.0
2015-Jul-29 05:32N 53°30' E 009°58'0 0.0
2015-Jul-29 04:32N 53°30' E 009°58'0 0.0
2015-Jul-29 03:32N 53°30' E 009°58'0 0.0
2015-Jul-29 02:26N 53°30' E 009°58'0 0.0
2015-Jul-29 01:32N 53°30' E 009°58'0 0.0
2015-Jul-29 00:32N 53°30' E 009°58'0 0.0
2015-Jul-28 23:32N 53°30' E 009°58'0 0.0
2015-Jul-28 22:29N 53°30' E 009°58'0 0.0
2015-Jul-28 21:32N 53°30' E 009°58'0 0.0
2015-Jul-28 20:32N 53°30' E 009°58'0 0.0
2015-Jul-28 19:32N 53°30' E 009°58'0 0.0
2015-Jul-28 18:33N 53°30' E 009°58'5 4.8
2015-Jul-28 17:33N 53°33' E 009°51'9 8.7
2015-Jul-28 16:33N 53°35' E 009°37'9 9.1
2015-Jul-28 15:33N 53°43' E 009°28'9 8.7
2015-Jul-28 14:33N 53°50' E 009°21'8 8.3
2015-Jul-28 13:33N 53°53' E 009°07'9 8.6
2015-Jul-28 12:34N 53°50' E 008°53'9 8.9
2015-Jul-28 11:33N 53°55' E 008°40'9 8.6
2015-Jul-28 10:33N 53°59' E 008°27'1010.4
2015-Jul-28 09:33N 53°59' E 008°09'1010.5
2015-Jul-28 08:33N 54°02' E 007°52'4 3.4
2015-Jul-28 07:26N 54°04' E 007°46'0 0.0
2015-Jul-28 06:29N 54°04' E 007°46'0 0.0
2015-Jul-28 05:29N 54°04' E 007°46'0 0.0
2015-Jul-28 04:32N 54°04' E 007°46'0 0.0
2015-Jul-28 03:23N 54°04' E 007°46'0 0.0
2015-Jul-28 02:26N 54°04' E 007°46'0 0.0
2015-Jul-28 01:26N 54°04' E 007°46'0 0.0
2015-Jul-28 00:29N 54°04' E 007°46'0 0.0
2015-Jul-27 23:29N 54°04' E 007°46'0 0.0
2015-Jul-27 22:29N 54°04' E 007°46'0 0.1
2015-Jul-27 21:17N 54°04' E 007°46'3 3.7
2015-Jul-27 20:33N 54°06' E 007°44'1111.0
2015-Jul-27 19:34N 54°09' E 007°26'1211.8
2015-Jul-27 18:33N 54°09' E 007°06'3812.4
2015-Jul-27 15:31N 54°07' E 006°02'1212.4
2015-Jul-27 14:33N 54°05' E 005°41'1212.0
2015-Jul-27 13:32N 54°03' E 005°21'1211.9
2015-Jul-27 12:31N 54°02' E 005°00'125 8.8
2015-Jul-26 22:16N 52°08' E 003°34'7 9.7
2015-Jul-26 21:33N 52°06' E 003°44'10 9.8
2015-Jul-26 20:33N 52°01' E 003°58'1111.1
2015-Jul-26 19:33N 51°56' E 004°14'5 3.9
2015-Jul-26 18:15N 51°54' E 004°21'0 0.0
2015-Jul-26 15:24N 51°54' E 004°21'0 0.0
2015-Jul-26 14:30N 51°54' E 004°21'0 0.0
2015-Jul-26 13:18N 51°54' E 004°21'0 0.0
2015-Jul-26 11:18N 51°54' E 004°21'0 0.0
2015-Jul-26 10:12N 51°54' E 004°21'0 0.0
2015-Jul-26 09:30N 51°54' E 004°21'0 0.0
2015-Jul-26 08:06N 51°54' E 004°21'0 0.0
2015-Jul-26 07:18N 51°54' E 004°21'0 0.0
2015-Jul-26 06:24N 51°54' E 004°21'0 0.0
2015-Jul-26 04:30N 51°54' E 004°21'0 0.0
2015-Jul-26 03:33N 51°54' E 004°21'0 0.0
2015-Jul-26 02:24N 51°54' E 004°21'0 0.0
2015-Jul-26 01:33N 51°54' E 004°21'0 0.0
2015-Jul-26 00:18N 51°54' E 004°21'0 0.0
2015-Jul-25 23:06N 51°54' E 004°21'0 0.0
2015-Jul-25 22:18N 51°54' E 004°21'0 0.0
2015-Jul-25 21:24N 51°54' E 004°21'0 0.0
2015-Jul-25 20:24N 51°54' E 004°21'3 3.1
2015-Jul-25 19:33N 51°54' E 004°17'1010.5
2015-Jul-25 18:33N 51°59' E 004°03'9 9.4
2015-Jul-25 17:34N 52°01' E 003°48'10 9.7
2015-Jul-25 16:30N 52°06' E 003°33'16410.2
2015-Jul-25 00:27N 54°17' E 000°47'910.0
2015-Jul-24 23:33N 54°21' E 000°34'1010.0
2015-Jul-24 22:33N 54°27' E 000°20'9 9.5
2015-Jul-24 21:33N 54°31' E 000°06'10 9.6
2015-Jul-24 20:33N 54°36' W 000°09'10 9.5
2015-Jul-24 19:33N 54°41' W 000°23'1211.0
2015-Jul-24 18:30N 54°44' W 000°42'1212.0
2015-Jul-24 17:31N 54°41' W 001°02'7 2.4
2015-Jul-24 14:33N 54°36' W 001°11'0 0.0
2015-Jul-24 12:21N 54°36' W 001°11'0 0.0
2015-Jul-24 11:21N 54°36' W 001°11'0 0.0
2015-Jul-23 19:24N 54°36' W 001°11'2 2.1
2015-Jul-23 18:33N 54°38' W 001°10'5 5.3
2015-Jul-23 17:34N 54°41' W 001°02'0 0.1
2015-Jul-23 16:33N 54°41' W 001°02'0 0.0
2015-Jul-23 15:33N 54°41' W 001°02'0 0.0
2015-Jul-23 14:30N 54°41' W 001°02'0 0.0
2015-Jul-23 13:30N 54°41' W 001°02'0 0.0
2015-Jul-23 12:33N 54°41' W 001°02'0 0.0
2015-Jul-23 11:33N 54°41' W 001°02'0 0.0
2015-Jul-23 10:33N 54°41' W 001°02'0 0.0
2015-Jul-23 09:30N 54°41' W 001°02'0 0.0
2015-Jul-23 08:33N 54°41' W 001°02'0 0.0
2015-Jul-23 07:33N 54°41' W 001°02'0 0.0
2015-Jul-23 06:33N 54°41' W 001°02'0 0.0
2015-Jul-23 05:33N 54°41' W 001°02'0 0.0
2015-Jul-23 04:33N 54°41' W 001°02'0 0.0
2015-Jul-23 03:33N 54°41' W 001°02'0 0.0
2015-Jul-23 02:33N 54°41' W 001°02'0 0.0
2015-Jul-23 00:33N 54°41' W 001°02'0 0.0
2015-Jul-22 23:27N 54°41' W 001°02'0 0.0
2015-Jul-22 22:33N 54°41' W 001°02'0 0.1
2015-Jul-22 21:27N 54°41' W 001°02'0 0.0
2015-Jul-22 20:33N 54°41' W 001°02'0 0.0
2015-Jul-22 19:33N 54°41' W 001°02'0 0.0
2015-Jul-22 18:27N 54°41' W 001°02'0 0.0
2015-Jul-22 17:33N 54°41' W 001°02'0 0.0
2015-Jul-22 16:33N 54°41' W 001°02'0 0.1
2015-Jul-22 15:33N 54°41' W 001°02'0 0.0
2015-Jul-22 14:27N 54°41' W 001°02'0 0.0
2015-Jul-22 13:33N 54°41' W 001°02'0 0.0
2015-Jul-22 12:33N 54°41' W 001°02'0 0.0
2015-Jul-22 11:33N 54°41' W 001°02'0 0.1
2015-Jul-22 10:30N 54°41' W 001°02'0 0.1
2015-Jul-22 09:33N 54°41' W 001°02'0 0.0
2015-Jul-22 08:33N 54°41' W 001°02'0 0.0
2015-Jul-22 07:27N 54°41' W 001°02'0 0.0
2015-Jul-22 06:33N 54°41' W 001°02'0 0.0
2015-Jul-22 05:30N 54°41' W 001°02'0 0.0
2015-Jul-22 04:30N 54°41' W 001°02'0 0.0
2015-Jul-22 03:27N 54°41' W 001°02'0 0.0
2015-Jul-22 02:33N 54°41' W 001°02'0 0.0
2015-Jul-22 01:27N 54°41' W 001°02'0 0.0
2015-Jul-22 00:33N 54°41' W 001°02'0 0.1
2015-Jul-21 23:33N 54°41' W 001°02'0 0.0
2015-Jul-21 21:33N 54°41' W 001°02'0 0.0
2015-Jul-21 20:09N 54°41' W 001°02'0 0.0
2015-Jul-21 19:33N 54°41' W 001°02'0 0.0
2015-Jul-21 18:30N 54°41' W 001°02'0 0.0
2015-Jul-21 17:18N 54°41' W 001°02'0 0.0
2015-Jul-21 16:33N 54°41' W 001°02'0 0.0
2015-Jul-21 15:33N 54°41' W 001°02'0 0.0
2015-Jul-21 14:33N 54°41' W 001°02'0 0.0
2015-Jul-21 13:30N 54°41' W 001°02'0 0.0
2015-Jul-21 12:30N 54°41' W 001°02'0 0.0
2015-Jul-21 11:33N 54°41' W 001°02'0 0.0
2015-Jul-21 10:33N 54°41' W 001°02'0 0.0
2015-Jul-21 09:33N 54°41' W 001°02'0 0.0
2015-Jul-21 08:33N 54°41' W 001°02'0 0.0
2015-Jul-21 07:15N 54°41' W 001°02'0 0.0
2015-Jul-21 06:27N 54°41' W 001°02'0 0.0
2015-Jul-21 05:33N 54°41' W 001°02'0 0.0
2015-Jul-21 04:33N 54°41' W 001°02'0 0.0
2015-Jul-21 03:33N 54°41' W 001°02'0 0.0
2015-Jul-21 02:27N 54°41' W 001°02'0 0.0
2015-Jul-21 01:33N 54°41' W 001°02'0 0.0
2015-Jul-21 00:27N 54°41' W 001°02'0 0.0
2015-Jul-20 23:33N 54°41' W 001°02'0 0.0
2015-Jul-20 22:15N 54°41' W 001°02'0 0.2
2015-Jul-20 21:33N 54°41' W 001°02'0 0.0
2015-Jul-20 20:33N 54°41' W 001°02'0 0.0
2015-Jul-20 19:27N 54°41' W 001°02'0 0.0
2015-Jul-20 18:27N 54°41' W 001°02'0 0.1
2015-Jul-20 16:15N 54°41' W 001°02'0 0.1
2015-Jul-20 15:33N 54°41' W 001°02'0 0.0
2015-Jul-20 14:30N 54°41' W 001°02'0 0.0
2015-Jul-20 13:33N 54°41' W 001°02'0 0.0
2015-Jul-20 12:33N 54°41' W 001°02'0 0.0
2015-Jul-20 11:33N 54°41' W 001°02'0 0.0
2015-Jul-20 10:33N 54°41' W 001°02'0 0.0
2015-Jul-20 09:33N 54°41' W 001°02'0 0.0
2015-Jul-20 08:33N 54°41' W 001°02'0 0.1
2015-Jul-20 07:27N 54°41' W 001°02'0 0.0
2015-Jul-20 05:33N 54°41' W 001°02'0 0.0
2015-Jul-20 04:27N 54°41' W 001°02'0 0.0
2015-Jul-20 03:33N 54°41' W 001°02'0 0.0
2015-Jul-20 00:33N 54°41' W 001°02'0 0.0
2015-Jul-19 23:33N 54°41' W 001°02'0 0.0
2015-Jul-19 22:27N 54°41' W 001°02'0 0.1
2015-Jul-19 21:33N 54°41' W 001°02'0 0.1
2015-Jul-19 20:21N 54°41' W 001°02'0 0.0
2015-Jul-19 19:33N 54°41' W 001°02'0 0.1
2015-Jul-19 18:33N 54°41' W 001°02'8 8.1
2015-Jul-19 17:34N 54°40' W 000°48'10 9.5
2015-Jul-19 16:33N 54°37' W 000°33'  

Dump ship's entire track history